createdAt,value
2018-07-25T00:00:36.899Z,22.52
2018-07-25T00:01:47.024Z,22.48
2018-07-25T00:02:57.430Z,22.43
2018-07-25T00:04:07.573Z,22.38
2018-07-25T00:05:17.965Z,22.42
2018-07-25T00:06:28.148Z,22.42
2018-07-25T00:07:38.512Z,22.3
2018-07-25T00:08:48.672Z,22.34
2018-07-25T00:09:58.826Z,22.33
2018-07-25T00:11:09.308Z,22.33
2018-07-25T00:12:19.437Z,22.33
2018-07-25T00:13:29.587Z,22.34
2018-07-25T00:14:39.708Z,22.24
2018-07-25T00:15:49.886Z,22.33
2018-07-25T00:17:00.286Z,22.3
2018-07-25T00:18:10.443Z,22.28
2018-07-25T00:19:20.629Z,22.23
2018-07-25T00:20:30.259Z,22.16
2018-07-25T00:21:40.806Z,22.24
2018-07-25T00:22:50.686Z,22.21
2018-07-25T00:24:00.845Z,22.2
2018-07-25T00:25:10.979Z,22.2
2018-07-25T00:26:21.103Z,22.21
2018-07-25T00:27:31.250Z,22.21
2018-07-25T00:28:41.395Z,22.16
2018-07-25T00:29:51.576Z,22.15
2018-07-25T00:31:01.972Z,22.15
2018-07-25T00:32:11.836Z,22.18
2018-07-25T00:33:21.987Z,22.09
2018-07-25T00:34:32.241Z,22.03
2018-07-25T00:35:42.408Z,22.08
2018-07-25T00:36:52.623Z,22.09
2018-07-25T00:38:02.858Z,22.02
2018-07-25T00:39:13.010Z,22.05
2018-07-25T00:40:22.987Z,22.06
2018-07-25T00:41:33.163Z,22.09
2018-07-25T00:42:43.308Z,22.02
2018-07-25T00:43:53.196Z,22.05
2018-07-25T00:45:03.164Z,22.09
2018-07-25T00:46:13.472Z,22.09
2018-07-25T00:47:23.816Z,22.05
2018-07-25T00:48:33.944Z,22.06
2018-07-25T00:49:44.074Z,22.08
2018-07-25T00:50:55.245Z,21.96
2018-07-25T00:52:05.413Z,21.9
2018-07-25T00:53:15.070Z,21.88
2018-07-25T00:54:25.224Z,21.97
2018-07-25T00:55:35.679Z,21.94
2018-07-25T00:56:45.795Z,21.86
2018-07-25T00:57:55.947Z,21.81
2018-07-25T00:59:06.079Z,21.86
2018-07-25T01:00:16.211Z,21.73
2018-07-25T01:01:26.563Z,21.69
2018-07-25T01:02:36.726Z,21.76
2018-07-25T01:03:46.846Z,21.72
2018-07-25T01:04:56.604Z,21.86
2018-07-25T01:06:06.732Z,21.84
2018-07-25T01:07:16.404Z,21.9
2018-07-25T01:08:26.380Z,21.87
2018-07-25T01:09:36.519Z,21.81
2018-07-25T01:10:46.903Z,21.78
2018-07-25T01:11:57.033Z,21.79
2018-07-25T01:13:07.172Z,21.73
2018-07-25T01:14:17.042Z,21.65
2018-07-25T01:15:27.021Z,21.66
2018-07-25T01:16:37.220Z,21.58
2018-07-25T01:17:47.673Z,21.53
2018-07-25T01:18:57.812Z,21.5
2018-07-25T01:20:07.995Z,21.46
2018-07-25T01:21:18.401Z,21.37
2018-07-25T01:22:28.759Z,21.41
2018-07-25T01:23:39.025Z,21.43
2018-07-25T01:24:49.179Z,21.43
2018-07-25T01:25:59.067Z,21.4
2018-07-25T01:27:08.931Z,21.35
2018-07-25T01:28:19.058Z,21.34
2018-07-25T01:29:29.390Z,21.31
2018-07-25T01:30:39.518Z,21.37
2018-07-25T01:31:49.691Z,21.38
2018-07-25T01:32:59.846Z,21.33
2018-07-25T01:34:09.985Z,21.34
2018-07-25T01:35:20.141Z,21.27
2018-07-25T01:36:30.397Z,21.25
2018-07-25T01:37:40.226Z,21.23
2018-07-25T01:38:50.172Z,21.27
2018-07-25T01:40:00.316Z,21.22
2018-07-25T01:41:10.439Z,21.3
2018-07-25T01:42:20.812Z,21.2
2018-07-25T01:43:30.997Z,21.2
2018-07-25T01:44:41.125Z,21.23
2018-07-25T01:45:52.215Z,21.23
2018-07-25T01:47:02.445Z,21.23
2018-07-25T01:48:12.437Z,21.2
2018-07-25T01:49:22.797Z,21.19
2018-07-25T01:50:32.705Z,21.18
2018-07-25T01:51:42.894Z,21.23
2018-07-25T01:52:53.119Z,21.23
2018-07-25T01:54:03.438Z,21.13
2018-07-25T01:55:13.562Z,21.16
2018-07-25T01:56:23.773Z,21.18
2018-07-25T01:57:34.095Z,21.12
2018-07-25T01:58:44.284Z,21.15
2018-07-25T01:59:54.427Z,21.12
2018-07-25T02:01:04.645Z,21.13
2018-07-25T02:02:14.825Z,21.08
2018-07-25T02:03:25.048Z,21.04
2018-07-25T02:04:35.300Z,21.04
2018-07-25T02:05:45.548Z,21
2018-07-25T02:06:55.777Z,21.03
2018-07-25T02:08:06.001Z,21
2018-07-25T02:09:16.321Z,21.01
2018-07-25T02:10:26.451Z,20.93
2018-07-25T02:11:36.827Z,20.97
2018-07-25T02:12:46.955Z,20.93
2018-07-25T02:13:57.134Z,20.88
2018-07-25T02:15:07.354Z,20.94
2018-07-25T02:16:17.273Z,20.94
2018-07-25T02:17:27.412Z,20.96
2018-07-25T02:18:37.563Z,20.98
2018-07-25T02:19:47.719Z,21
2018-07-25T02:20:57.593Z,20.98
2018-07-25T02:22:07.770Z,20.96
2018-07-25T02:23:17.908Z,21
2018-07-25T02:24:28.224Z,20.96
2018-07-25T02:25:37.999Z,20.85
2018-07-25T02:26:47.870Z,20.79
2018-07-25T02:27:58.013Z,20.82
2018-07-25T02:29:08.160Z,20.81
2018-07-25T02:30:18.301Z,20.85
2018-07-25T02:31:28.267Z,20.85
2018-07-25T02:32:38.417Z,20.85
2018-07-25T02:33:48.551Z,20.82
2018-07-25T02:34:58.697Z,20.88
2018-07-25T02:36:08.916Z,20.86
2018-07-25T02:37:18.856Z,20.93
2018-07-25T02:38:28.862Z,20.82
2018-07-25T02:39:39.037Z,20.85
2018-07-25T02:40:49.273Z,20.82
2018-07-25T02:41:59.514Z,20.82
2018-07-25T02:43:09.764Z,20.83
2018-07-25T02:44:19.973Z,20.86
2018-07-25T02:45:30.289Z,20.86
2018-07-25T02:46:40.437Z,20.81
2018-07-25T02:47:50.693Z,20.85
2018-07-25T02:49:00.880Z,20.86
2018-07-25T02:50:11.080Z,20.75
2018-07-25T02:51:21.444Z,20.75
2018-07-25T02:52:31.574Z,20.76
2018-07-25T02:53:41.787Z,20.75
2018-07-25T02:54:51.971Z,20.71
2018-07-25T02:56:01.875Z,20.75
2018-07-25T02:57:12.015Z,20.63
2018-07-25T02:58:22.143Z,20.61
2018-07-25T02:59:32.293Z,20.58
2018-07-25T03:00:42.235Z,20.57
2018-07-25T03:01:52.402Z,20.54
2018-07-25T03:03:02.602Z,20.57
2018-07-25T03:04:12.463Z,20.53
2018-07-25T03:05:22.347Z,20.54
2018-07-25T03:06:32.487Z,20.53
2018-07-25T03:07:42.630Z,20.42
2018-07-25T03:08:52.583Z,20.56
2018-07-25T03:10:02.950Z,20.49
2018-07-25T03:11:13.186Z,20.56
2018-07-25T03:12:23.382Z,20.46
2018-07-25T03:13:33.539Z,20.48
2018-07-25T03:14:43.761Z,20.49
2018-07-25T03:15:54.082Z,20.51
2018-07-25T03:17:03.997Z,20.56
2018-07-25T03:18:14.172Z,20.51
2018-07-25T03:19:24.319Z,20.53
2018-07-25T03:20:34.511Z,20.56
2018-07-25T03:21:44.702Z,20.53
2018-07-25T03:22:54.441Z,20.49
2018-07-25T03:24:04.645Z,20.56
2018-07-25T03:25:14.848Z,20.46
2018-07-25T03:26:25.088Z,20.57
2018-07-25T03:27:35.293Z,20.51
2018-07-25T03:28:45.541Z,20.54
2018-07-25T03:29:55.698Z,20.49
2018-07-25T03:31:05.580Z,20.54
2018-07-25T03:32:15.908Z,20.46
2018-07-25T03:33:25.749Z,20.38
2018-07-25T03:34:35.878Z,20.24
2018-07-25T03:35:46.009Z,20.27
2018-07-25T03:36:56.198Z,20.11
2018-07-25T03:38:06.346Z,20.11
2018-07-25T03:39:16.565Z,20.05
2018-07-25T03:40:26.511Z,20.11
2018-07-25T03:41:36.645Z,20.07
2018-07-25T03:42:46.767Z,20.04
2018-07-25T03:43:56.897Z,20.11
2018-07-25T03:45:07.048Z,20.12
2018-07-25T03:46:17.220Z,20.16
2018-07-25T03:47:27.586Z,20.03
2018-07-25T03:48:37.730Z,20.04
2018-07-25T03:49:47.884Z,20.04
2018-07-25T03:50:58.044Z,19.97
2018-07-25T03:52:08.096Z,20
2018-07-25T03:53:18.253Z,20.03
2018-07-25T03:54:28.514Z,20.05
2018-07-25T03:55:38.658Z,20
2018-07-25T03:56:48.856Z,20.11
2018-07-25T03:57:59.115Z,19.98
2018-07-25T03:59:09.506Z,19.93
2018-07-25T04:00:19.647Z,20.04
2018-07-25T04:01:29.848Z,20.05
2018-07-25T04:02:40.235Z,20.14
2018-07-25T04:03:50.526Z,20.26
2018-07-25T04:05:00.648Z,20.24
2018-07-25T04:06:10.804Z,20.2
2018-07-25T04:07:21.186Z,20.17
2018-07-25T04:08:31.316Z,20.31
2018-07-25T04:09:41.433Z,20.27
2018-07-25T04:10:51.614Z,20.3
2018-07-25T04:12:01.832Z,20.31
2018-07-25T04:13:11.653Z,20.31
2018-07-25T04:14:21.990Z,20.42
2018-07-25T04:15:32.130Z,20.36
2018-07-25T04:16:42.363Z,20.43
2018-07-25T04:17:52.185Z,20.49
2018-07-25T04:19:02.303Z,20.36
2018-07-25T04:20:12.434Z,20.43
2018-07-25T04:21:22.666Z,20.38
2018-07-25T04:22:32.840Z,20.34
2018-07-25T04:23:43.002Z,20.42
2018-07-25T04:24:53.299Z,20.36
2018-07-25T04:26:03.514Z,20.46
2018-07-25T04:27:13.693Z,20.45
2018-07-25T04:28:23.869Z,20.42
2018-07-25T04:29:34.005Z,20.43
2018-07-25T04:30:43.879Z,20.43
2018-07-25T04:31:54.054Z,20.45
2018-07-25T04:33:04.242Z,20.49
2018-07-25T04:34:14.422Z,20.49
2018-07-25T04:35:24.344Z,20.51
2018-07-25T04:36:34.530Z,20.51
2018-07-25T04:37:44.780Z,20.48
2018-07-25T04:38:54.968Z,20.53
2018-07-25T04:40:05.183Z,20.51
2018-07-25T04:41:15.336Z,20.46
2018-07-25T04:42:25.577Z,20.54
2018-07-25T04:43:35.931Z,20.54
2018-07-25T04:44:46.052Z,20.51
2018-07-25T04:45:55.924Z,20.53
2018-07-25T04:47:06.175Z,20.49
2018-07-25T04:48:16.291Z,20.51
2018-07-25T04:49:26.457Z,20.53
2018-07-25T04:50:36.326Z,20.53
2018-07-25T04:51:46.529Z,20.54
2018-07-25T04:52:56.663Z,20.64
2018-07-25T04:54:06.848Z,20.6
2018-07-25T04:55:17.097Z,20.61
2018-07-25T04:56:27.333Z,20.67
2018-07-25T04:57:37.526Z,20.64
2018-07-25T04:58:47.694Z,20.75
2018-07-25T04:59:57.578Z,20.75
2018-07-25T05:01:07.468Z,20.81
2018-07-25T05:02:17.569Z,20.75
2018-07-25T05:03:27.794Z,20.83
2018-07-25T05:04:38.134Z,20.85
2018-07-25T05:05:47.914Z,20.82
2018-07-25T05:06:58.331Z,20.88
2018-07-25T05:08:08.589Z,20.86
2018-07-25T05:09:18.769Z,20.94
2018-07-25T05:10:28.974Z,20.9
2018-07-25T05:11:39.142Z,20.98
2018-07-25T05:12:49.461Z,21.06
2018-07-25T05:13:59.617Z,21.08
2018-07-25T05:15:09.856Z,21.1
2018-07-25T05:16:19.726Z,21.04
2018-07-25T05:17:29.876Z,21.09
2018-07-25T05:18:40.015Z,21.2
2018-07-25T05:19:50.365Z,21.16
2018-07-25T05:21:00.516Z,21.2
2018-07-25T05:22:10.578Z,21.33
2018-07-25T05:23:20.908Z,21.28
2018-07-25T05:24:30.873Z,21.37
2018-07-25T05:25:41.265Z,21.4
2018-07-25T05:26:51.430Z,21.43
2018-07-25T05:28:01.817Z,21.57
2018-07-25T05:29:12.186Z,21.56
2018-07-25T05:30:22.241Z,21.57
2018-07-25T05:31:32.364Z,21.6
2018-07-25T05:32:42.295Z,21.66
2018-07-25T05:33:52.512Z,21.73
2018-07-25T05:35:02.396Z,21.73
2018-07-25T05:36:12.546Z,21.84
2018-07-25T05:37:22.489Z,21.87
2018-07-25T05:38:32.642Z,21.93
2018-07-25T05:39:43.009Z,21.97
2018-07-25T05:40:53.538Z,21.97
2018-07-25T05:42:03.659Z,22.02
2018-07-25T05:43:13.818Z,22.12
2018-07-25T05:44:23.979Z,22.06
2018-07-25T05:45:34.124Z,22.16
2018-07-25T05:46:44.391Z,22.12
2018-07-25T05:47:54.262Z,22.15
2018-07-25T05:49:04.400Z,22.33
2018-07-25T05:50:14.280Z,22.31
2018-07-25T05:51:24.420Z,22.34
2018-07-25T05:52:34.571Z,22.34
2018-07-25T05:53:44.684Z,22.4
2018-07-25T05:54:54.824Z,22.33
2018-07-25T05:56:04.982Z,22.45
2018-07-25T05:57:15.129Z,22.45
2018-07-25T05:58:25.098Z,22.55
2018-07-25T05:59:35.349Z,22.48
2018-07-25T06:00:45.730Z,22.5
2018-07-25T06:01:55.906Z,22.52
2018-07-25T06:03:06.570Z,22.63
2018-07-25T06:04:17.124Z,22.61
2018-07-25T06:05:27.432Z,22.67
2018-07-25T06:06:37.696Z,22.7
2018-07-25T06:07:47.890Z,22.78
2018-07-25T06:08:58.163Z,22.85
2018-07-25T06:10:08.310Z,22.93
2018-07-25T06:11:18.682Z,22.87
2018-07-25T06:12:28.835Z,22.89
2018-07-25T06:13:38.727Z,22.99
2018-07-25T06:14:48.882Z,23.02
2018-07-25T06:16:00.000Z,22.95
2018-07-25T06:17:10.157Z,23.01
2018-07-25T06:18:20.322Z,23.06
2018-07-25T06:19:30.584Z,23.01
2018-07-25T06:20:41.137Z,23.03
2018-07-25T06:21:51.528Z,23.06
2018-07-25T06:23:01.870Z,23.16
2018-07-25T06:24:12.416Z,23.11
2018-07-25T06:25:22.765Z,23.17
2018-07-25T06:26:32.943Z,23.23
2018-07-25T06:27:43.074Z,23.18
2018-07-25T06:28:52.941Z,23.31
2018-07-25T06:30:03.167Z,23.32
2018-07-25T06:31:13.443Z,23.31
2018-07-25T06:32:23.777Z,23.33
2018-07-25T06:33:33.785Z,23.33
2018-07-25T06:34:44.082Z,23.43
2018-07-25T06:35:54.352Z,23.4
2018-07-25T06:37:05.517Z,23.46
2018-07-25T06:38:16.138Z,23.51
2018-07-25T06:39:26.081Z,23.58
2018-07-25T06:40:35.708Z,23.57
2018-07-25T06:41:45.634Z,23.65
2018-07-25T06:42:55.712Z,23.72
2018-07-25T06:44:05.868Z,23.72
2018-07-25T06:45:16.024Z,23.7
2018-07-25T06:46:26.418Z,23.69
2018-07-25T06:47:36.565Z,23.75
2018-07-25T06:48:46.711Z,23.82
2018-07-25T06:49:56.881Z,23.79
2018-07-25T06:51:07.131Z,23.77
2018-07-25T06:52:17.336Z,23.85
2018-07-25T06:53:27.613Z,23.91
2018-07-25T06:54:37.810Z,23.94
2018-07-25T06:55:47.691Z,23.85
2018-07-25T06:56:58.049Z,23.94
2018-07-25T06:58:07.860Z,24.01
2018-07-25T06:59:17.996Z,24.05
2018-07-25T07:00:28.162Z,24.02
2018-07-25T07:01:38.535Z,24.02
2018-07-25T07:02:48.679Z,24.12
2018-07-25T07:03:58.818Z,24.12
2018-07-25T07:05:08.959Z,24.22
2018-07-25T07:06:19.595Z,24.22
2018-07-25T07:07:29.739Z,24.38
2018-07-25T07:08:40.209Z,24.32
2018-07-25T07:09:50.347Z,24.34
2018-07-25T07:11:00.488Z,24.44
2018-07-25T07:12:11.100Z,24.43
2018-07-25T07:13:21.450Z,24.43
2018-07-25T07:14:31.336Z,24.47
2018-07-25T07:15:41.459Z,24.58
2018-07-25T07:16:51.593Z,24.57
2018-07-25T07:18:01.477Z,24.62
2018-07-25T07:19:11.857Z,24.6
2018-07-25T07:20:22.112Z,24.6
2018-07-25T07:21:32.377Z,24.6
2018-07-25T07:22:42.507Z,24.73
2018-07-25T07:23:52.762Z,24.73
2018-07-25T07:25:03.029Z,24.8
2018-07-25T07:26:13.151Z,24.7
2018-07-25T07:27:23.332Z,24.78
2018-07-25T07:28:33.468Z,24.82
2018-07-25T07:29:43.608Z,24.85
2018-07-25T07:30:53.749Z,24.85
2018-07-25T07:32:03.959Z,24.95
2018-07-25T07:33:14.309Z,24.95
2018-07-25T07:34:24.450Z,25.03
2018-07-25T07:35:34.610Z,25.03
2018-07-25T07:36:44.507Z,25.09
2018-07-25T07:37:55.164Z,25.09
2018-07-25T07:39:05.338Z,25.12
2018-07-25T07:40:15.707Z,25.17
2018-07-25T07:41:25.842Z,25.22
2018-07-25T07:42:36.294Z,25.27
2018-07-25T07:43:46.596Z,25.19
2018-07-25T07:44:56.442Z,25.24
2018-07-25T07:46:06.583Z,25.25
2018-07-25T07:47:16.751Z,25.37
2018-07-25T07:48:26.932Z,25.34
2018-07-25T07:49:36.959Z,25.42
2018-07-25T07:50:47.104Z,25.43
2018-07-25T07:51:57.275Z,25.52
2018-07-25T07:53:07.449Z,25.54
2018-07-25T07:54:17.333Z,25.49
2018-07-25T07:55:27.502Z,25.61
2018-07-25T07:56:37.702Z,25.55
2018-07-25T07:57:47.815Z,25.66
2018-07-25T07:58:58.049Z,25.69
2018-07-25T08:00:07.920Z,25.68
2018-07-25T08:01:18.069Z,25.68
2018-07-25T08:02:28.211Z,25.77
2018-07-25T08:03:38.452Z,25.81
2018-07-25T08:04:48.382Z,25.88
2018-07-25T08:05:58.610Z,25.92
2018-07-25T08:07:08.788Z,25.9
2018-07-25T08:08:18.953Z,25.96
2018-07-25T08:09:29.324Z,26.02
2018-07-25T08:10:39.576Z,26.02
2018-07-25T08:11:49.948Z,26.14
2018-07-25T08:13:00.195Z,26.06
2018-07-25T08:14:10.410Z,26.21
2018-07-25T08:15:20.610Z,26.21
2018-07-25T08:16:31.738Z,26.3
2018-07-25T08:17:42.380Z,26.34
2018-07-25T08:18:52.569Z,26.46
2018-07-25T08:20:02.964Z,26.43
2018-07-25T08:21:13.178Z,26.56
2018-07-25T08:22:23.566Z,26.55
2018-07-25T08:23:33.749Z,26.73
2018-07-25T08:24:43.895Z,26.77
2018-07-25T08:25:53.827Z,26.88
2018-07-25T08:27:03.696Z,26.93
2018-07-25T08:28:13.827Z,26.98
2018-07-25T08:29:23.736Z,27.19
2018-07-25T08:30:33.638Z,27.35
2018-07-25T08:31:43.826Z,27.41
2018-07-25T08:32:54.036Z,27.6
2018-07-25T08:34:04.224Z,27.74
2018-07-25T08:35:14.630Z,27.83
2018-07-25T08:36:24.515Z,28.02
2018-07-25T08:37:34.777Z,28.13
2018-07-25T08:38:45.044Z,28.23
2018-07-25T08:39:55.185Z,28.34
2018-07-25T08:41:05.392Z,28.6
2018-07-25T08:42:15.687Z,28.72
2018-07-25T08:43:25.955Z,28.94
2018-07-25T08:44:35.796Z,29.01
2018-07-25T08:45:46.103Z,29.17
2018-07-25T08:46:56.554Z,29.36
2018-07-25T08:48:06.836Z,29.5
2018-07-25T08:49:17.068Z,29.75
2018-07-25T08:50:27.215Z,30.38
2018-07-25T08:51:37.799Z,30.93
2018-07-25T08:52:48.346Z,31.63
2018-07-25T08:53:58.685Z,32.29
2018-07-25T08:55:08.828Z,33.04
2018-07-25T08:56:18.968Z,33.6
2018-07-25T08:57:29.418Z,34.08
2018-07-25T08:58:39.583Z,34.36
2018-07-25T08:59:50.782Z,34.1
2018-07-25T09:01:00.934Z,33.93
2018-07-25T09:02:11.132Z,33.88
2018-07-25T09:03:21.330Z,33.72
2018-07-25T09:04:31.583Z,33.37
2018-07-25T09:05:41.775Z,33.17
2018-07-25T09:06:51.975Z,33.07
2018-07-25T09:08:02.212Z,33.27
2018-07-25T09:09:12.410Z,33.53
2018-07-25T09:10:22.346Z,33.87
2018-07-25T09:11:32.840Z,34.24
2018-07-25T09:12:43.588Z,34.51
2018-07-25T09:13:54.215Z,34.92
2018-07-25T09:15:04.476Z,35.29
2018-07-25T09:16:14.772Z,35.44
2018-07-25T09:17:26.230Z,35.69
2018-07-25T09:18:38.584Z,35.66
2018-07-25T09:19:49.043Z,35.67
2018-07-25T09:20:59.482Z,35.13
2018-07-25T09:22:09.368Z,34.77
2018-07-25T09:23:19.555Z,34.67
2018-07-25T09:24:29.762Z,34.66
2018-07-25T09:25:41.013Z,34.64
2018-07-25T09:26:51.320Z,34.84
2018-07-25T09:28:01.712Z,35.04
2018-07-25T09:29:11.987Z,35.26
2018-07-25T09:30:22.225Z,35.6
2018-07-25T09:31:34.754Z,35.87
